sensor_id;sensor_type;location;lat;lon;timestamp;pressure;altitude;pressure_sealevel;temperature;humidity
69980;BME280;57318;56.232;43.944;2023-01-31T00:00:09;97714.19;;;-4.77;75.79
69980;BME280;57318;56.232;43.944;2023-01-31T00:02:34;97704.75;;;-4.78;75.79
69980;BME280;57318;56.232;43.944;2023-01-31T00:05:00;97709.00;;;-4.77;75.72
69980;BME280;57318;56.232;43.944;2023-01-31T00:07:26;97711.59;;;-4.77;75.87
69980;BME280;57318;56.232;43.944;2023-01-31T00:09:51;97706.50;;;-4.78;75.31
69980;BME280;57318;56.232;43.944;2023-01-31T00:12:17;97696.97;;;-4.78;75.60
69980;BME280;57318;56.232;43.944;2023-01-31T00:14:42;97706.50;;;-4.78;75.23
69980;BME280;57318;56.232;43.944;2023-01-31T00:17:08;97700.47;;;-4.79;75.72
69980;BME280;57318;56.232;43.944;2023-01-31T00:19:33;97705.66;;;-4.79;75.67
69980;BME280;57318;56.232;43.944;2023-01-31T00:21:58;97697.88;;;-4.79;75.31
69980;BME280;57318;56.232;43.944;2023-01-31T00:24:24;97712.59;;;-4.79;75.35
69980;BME280;57318;56.232;43.944;2023-01-31T00:26:49;97690.19;;;-4.80;75.50
69980;BME280;57318;56.232;43.944;2023-01-31T00:29:23;97709.16;;;-4.80;75.67
69980;BME280;57318;56.232;43.944;2023-01-31T00:31:48;97707.34;;;-4.78;75.20
69980;BME280;57318;56.232;43.944;2023-01-31T00:34:14;97714.25;;;-4.78;75.38
69980;BME280;57318;56.232;43.944;2023-01-31T00:36:40;97715.19;;;-4.79;75.39
69980;BME280;57318;56.232;43.944;2023-01-31T00:39:06;97716.03;;;-4.79;75.41
69980;BME280;57318;56.232;43.944;2023-01-31T00:41:32;97699.56;;;-4.78;75.30
69980;BME280;57318;56.232;43.944;2023-01-31T00:43:57;97704.91;;;-4.81;75.24
69980;BME280;57318;56.232;43.944;2023-01-31T00:46:23;97700.53;;;-4.80;75.29
69980;BME280;57318;56.232;43.944;2023-01-31T00:48:49;97700.75;;;-4.85;75.17
69980;BME280;57318;56.232;43.944;2023-01-31T00:51:14;97695.63;;;-4.86;75.12
69980;BME280;57318;56.232;43.944;2023-01-31T00:53:40;97703.34;;;-4.85;75.75
69980;BME280;57318;56.232;43.944;2023-01-31T00:56:07;97704.31;;;-4.87;75.65
69980;BME280;57318;56.232;43.944;2023-01-31T00:58:33;97696.75;;;-4.92;75.63
69980;BME280;57318;56.232;43.944;2023-01-31T01:03:36;97702.00;;;-4.94;75.76
69980;BME280;57318;56.232;43.944;2023-01-31T01:06:02;97701.22;;;-4.96;75.59
69980;BME280;57318;56.232;43.944;2023-01-31T01:08:28;97690.88;;;-4.96;76.00
69980;BME280;57318;56.232;43.944;2023-01-31T01:10:54;97699.53;;;-4.97;75.79
69980;BME280;57318;56.232;43.944;2023-01-31T01:13:20;97707.19;;;-4.94;76.25
69980;BME280;57318;56.232;43.944;2023-01-31T01:15:45;97702.06;;;-4.95;76.16
69980;BME280;57318;56.232;43.944;2023-01-31T01:18:11;97702.06;;;-4.95;75.65
69980;BME280;57318;56.232;43.944;2023-01-31T01:20:36;97695.09;;;-4.93;75.74
69980;BME280;57318;56.232;43.944;2023-01-31T01:23:01;97698.44;;;-4.91;76.02
69980;BME280;57318;56.232;43.944;2023-01-31T01:25:28;97699.34;;;-4.92;75.68
69980;BME280;57318;56.232;43.944;2023-01-31T01:27:54;97695.91;;;-4.93;75.76
69980;BME280;57318;56.232;43.944;2023-01-31T01:30:20;97706.22;;;-4.91;75.79
69980;BME280;57318;56.232;43.944;2023-01-31T01:32:45;97689.84;;;-4.92;75.77
69980;BME280;57318;56.232;43.944;2023-01-31T01:35:11;97692.44;;;-4.92;76.12
69980;BME280;57318;56.232;43.944;2023-01-31T01:37:36;97700.13;;;-4.90;75.84
69980;BME280;57318;56.232;43.944;2023-01-31T01:40:02;97694.09;;;-4.91;75.88
69980;BME280;57318;56.232;43.944;2023-01-31T01:42:29;97695.03;;;-4.92;75.96
69980;BME280;57318;56.232;43.944;2023-01-31T01:44:58;97694.16;;;-4.92;75.94
69980;BME280;57318;56.232;43.944;2023-01-31T01:47:38;97697.69;;;-4.93;76.13
69980;BME280;57318;56.232;43.944;2023-01-31T01:52:47;97696.75;;;-4.92;75.95
69980;BME280;57318;56.232;43.944;2023-01-31T01:56:15;97699.41;;;-4.94;76.20
69980;BME280;57318;56.232;43.944;2023-01-31T01:58:13;97706.28;;;-4.93;76.14
69980;BME280;57318;56.232;43.944;2023-01-31T02:00:40;97698.44;;;-4.91;76.22
69980;BME280;57318;56.232;43.944;2023-01-31T02:03:06;97706.97;;;-4.89;76.10
69980;BME280;57318;56.232;43.944;2023-01-31T02:05:51;97690.66;;;-4.91;76.26
69980;BME280;57318;56.232;43.944;2023-01-31T02:08:18;97709.69;;;-4.92;76.23
69980;BME280;57318;56.232;43.944;2023-01-31T02:10:48;97701.09;;;-4.93;76.56
69980;BME280;57318;56.232;43.944;2023-01-31T02:13:15;97705.44;;;-4.93;76.79
69980;BME280;57318;56.232;43.944;2023-01-31T02:15:40;97695.09;;;-4.93;76.50
69980;BME280;57318;56.232;43.944;2023-01-31T02:18:06;97689.91;;;-4.93;76.71
69980;BME280;57318;56.232;43.944;2023-01-31T02:35:59;97706.97;;;-4.89;76.83
69980;BME280;57318;56.232;43.944;2023-01-31T02:43:24;97726.19;;;-4.93;76.60
69980;BME280;57318;56.232;43.944;2023-01-31T02:46:00;97716.63;;;-4.93;76.70
69980;BME280;57318;56.232;43.944;2023-01-31T02:51:13;97728.75;;;-4.93;76.99
69980;BME280;57318;56.232;43.944;2023-01-31T02:53:49;97722.66;;;-4.92;77.14
69980;BME280;57318;56.232;43.944;2023-01-31T02:56:19;97712.28;;;-4.92;77.27
69980;BME280;57318;56.232;43.944;2023-01-31T03:01:31;97722.72;;;-4.94;77.33
69980;BME280;57318;56.232;43.944;2023-01-31T03:03:58;97704.59;;;-4.94;77.23
69980;BME280;57318;56.232;43.944;2023-01-31T03:08:51;97712.44;;;-4.95;77.53
69980;BME280;57318;56.232;43.944;2023-01-31T03:11:17;97714.13;;;-4.94;77.18
69980;BME280;57318;56.232;43.944;2023-01-31T03:13:53;97728.75;;;-4.93;77.22
69980;BME280;57318;56.232;43.944;2023-01-31T03:21:38;97731.22;;;-4.90;77.34
69980;BME280;57318;56.232;43.944;2023-01-31T03:24:06;97726.03;;;-4.90;77.49
69980;BME280;57318;56.232;43.944;2023-01-31T03:26:32;97736.41;;;-4.90;77.40
69980;BME280;57318;56.232;43.944;2023-01-31T03:28:59;97733.81;;;-4.90;77.42
69980;BME280;57318;56.232;43.944;2023-01-31T03:31:27;97729.38;;;-4.88;77.74
69980;BME280;57318;56.232;43.944;2023-01-31T03:33:55;97722.50;;;-4.89;77.64
69980;BME280;57318;56.232;43.944;2023-01-31T03:36:27;97734.44;;;-4.85;77.80
69980;BME280;57318;56.232;43.944;2023-01-31T03:38:58;97723.16;;;-4.84;77.77
69980;BME280;57318;56.232;43.944;2023-01-31T03:44:34;97742.81;;;-4.80;77.55
69980;BME280;57318;56.232;43.944;2023-01-31T03:47:03;97749.69;;;-4.79;77.57
69980;BME280;57318;56.232;43.944;2023-01-31T03:49:29;97746.28;;;-4.79;77.37
69980;BME280;57318;56.232;43.944;2023-01-31T03:52:03;97741.03;;;-4.78;77.56
69980;BME280;57318;56.232;43.944;2023-01-31T03:54:30;97743.63;;;-4.78;77.54
69980;BME280;57318;56.232;43.944;2023-01-31T03:57:00;97748.00;;;-4.80;77.73
69980;BME280;57318;56.232;43.944;2023-01-31T03:59:32;97748.94;;;-4.81;77.70
69980;BME280;57318;56.232;43.944;2023-01-31T04:02:00;97755.84;;;-4.81;77.62
69980;BME280;57318;56.232;43.944;2023-01-31T04:04:36;97741.09;;;-4.79;77.92
69980;BME280;57318;56.232;43.944;2023-01-31T04:07:03;97753.06;;;-4.77;77.57
69980;BME280;57318;56.232;43.944;2023-01-31T04:09:30;97746.22;;;-4.78;77.84
69980;BME280;57318;56.232;43.944;2023-01-31T04:11:57;97749.78;;;-4.80;77.76
69980;BME280;57318;56.232;43.944;2023-01-31T04:14:23;97741.03;;;-4.78;77.57
69980;BME280;57318;56.232;43.944;2023-01-31T04:16:49;97752.16;;;-4.76;77.76
69980;BME280;57318;56.232;43.944;2023-01-31T04:19:15;97751.25;;;-4.75;77.82
69980;BME280;57318;56.232;43.944;2023-01-31T04:21:40;97759.78;;;-4.73;77.74
69980;BME280;57318;56.232;43.944;2023-01-31T04:24:06;97757.13;;;-4.71;77.59
69980;BME280;57318;56.232;43.944;2023-01-31T04:26:33;97755.38;;;-4.71;77.69
69980;BME280;57318;56.232;43.944;2023-01-31T04:28:59;97780.25;;;-4.66;77.62
69980;BME280;57318;56.232;43.944;2023-01-31T04:31:24;97764.69;;;-4.66;77.72
69980;BME280;57318;56.232;43.944;2023-01-31T04:33:49;97769.94;;;-4.68;77.44
69980;BME280;57318;56.232;43.944;2023-01-31T04:36:15;97772.47;;;-4.66;77.36
69980;BME280;57318;56.232;43.944;2023-01-31T04:38:40;97765.59;;;-4.67;77.31
69980;BME280;57318;56.232;43.944;2023-01-31T04:41:06;97780.19;;;-4.65;77.64
69980;BME280;57318;56.232;43.944;2023-01-31T04:43:32;97770.66;;;-4.64;77.42
69980;BME280;57318;56.232;43.944;2023-01-31T04:45:57;97776.59;;;-4.62;77.47
69980;BME280;57318;56.232;43.944;2023-01-31T04:48:22;97792.00;;;-4.59;77.03
69980;BME280;57318;56.232;43.944;2023-01-31T04:50:48;97784.22;;;-4.59;77.04
69980;BME280;57318;56.232;43.944;2023-01-31T04:53:13;97784.22;;;-4.59;76.94
69980;BME280;57318;56.232;43.944;2023-01-31T04:55:39;97788.44;;;-4.57;77.10
69980;BME280;57318;56.232;43.944;2023-01-31T04:58:05;97791.09;;;-4.58;77.29
69980;BME280;57318;56.232;43.944;2023-01-31T05:00:31;97803.16;;;-4.57;77.18
69980;BME280;57318;56.232;43.944;2023-01-31T05:02:56;97793.69;;;-4.58;77.04
69980;BME280;57318;56.232;43.944;2023-01-31T05:05:22;97788.50;;;-4.58;77.43
69980;BME280;57318;56.232;43.944;2023-01-31T05:07:47;97797.13;;;-4.58;76.98
69980;BME280;57318;56.232;43.944;2023-01-31T05:10:12;97806.53;;;-4.55;77.18
69980;BME280;57318;56.232;43.944;2023-01-31T05:12:38;97801.34;;;-4.55;77.27
69980;BME280;57318;56.232;43.944;2023-01-31T05:15:04;97800.44;;;-4.54;76.85
69980;BME280;57318;56.232;43.944;2023-01-31T05:17:31;97814.16;;;-4.52;77.09
69980;BME280;57318;56.232;43.944;2023-01-31T05:19:56;97813.25;;;-4.51;77.00
69980;BME280;57318;56.232;43.944;2023-01-31T05:22:22;97815.00;;;-4.51;76.94
69980;BME280;57318;56.232;43.944;2023-01-31T05:24:48;97807.28;;;-4.53;77.07
69980;BME280;57318;56.232;43.944;2023-01-31T05:27:14;97804.63;;;-4.51;77.03
69980;BME280;57318;56.232;43.944;2023-01-31T05:29:39;97804.47;;;-4.48;77.03
69980;BME280;57318;56.232;43.944;2023-01-31T05:32:05;97807.16;;;-4.50;76.87
69980;BME280;57318;56.232;43.944;2023-01-31T05:34:31;97807.88;;;-4.46;76.88
69980;BME280;57318;56.232;43.944;2023-01-31T05:36:57;97794.84;;;-4.45;76.83
69980;BME280;57318;56.232;43.944;2023-01-31T05:39:52;97809.53;;;-4.45;76.73
69980;BME280;57318;56.232;43.944;2023-01-31T05:42:18;97795.59;;;-4.43;76.75
69980;BME280;57318;56.232;43.944;2023-01-31T05:44:44;97811.78;;;-4.38;76.98
69980;BME280;57318;56.232;43.944;2023-01-31T05:47:09;97805.91;;;-4.41;76.78
69980;BME280;57318;56.232;43.944;2023-01-31T05:49:35;97822.91;;;-4.36;76.55
69980;BME280;57318;56.232;43.944;2023-01-31T05:52:01;97821.25;;;-4.37;76.67
69980;BME280;57318;56.232;43.944;2023-01-31T05:54:26;97829.72;;;-4.33;76.40
69980;BME280;57318;56.232;43.944;2023-01-31T05:56:52;97842.63;;;-4.31;76.61
69980;BME280;57318;56.232;43.944;2023-01-31T05:59:19;97839.06;;;-4.29;76.34
69980;BME280;57318;56.232;43.944;2023-01-31T06:01:44;97830.28;;;-4.26;76.39
69980;BME280;57318;56.232;43.944;2023-01-31T06:04:10;97845.84;;;-4.26;76.43
69980;BME280;57318;56.232;43.944;2023-01-31T06:06:36;97846.63;;;-4.24;76.38
69980;BME280;57318;56.232;43.944;2023-01-31T06:09:01;97835.19;;;-4.20;75.95
69980;BME280;57318;56.232;43.944;2023-01-31T06:11:27;97852.50;;;-4.21;76.05
69980;BME280;57318;56.232;43.944;2023-01-31T06:13:53;97853.19;;;-4.17;76.08
69980;BME280;57318;56.232;43.944;2023-01-31T06:16:22;97841.91;;;-4.16;75.93
69980;BME280;57318;56.232;43.944;2023-01-31T06:18:48;97853.00;;;-4.12;75.91
69980;BME280;57318;56.232;43.944;2023-01-31T06:21:14;97843.44;;;-4.12;75.57
69980;BME280;57318;56.232;43.944;2023-01-31T06:23:41;97849.28;;;-4.07;75.47
69980;BME280;57318;56.232;43.944;2023-01-31T06:26:11;97865.59;;;-4.05;75.49
69980;BME280;57318;56.232;43.944;2023-01-31T06:28:37;97853.47;;;-4.04;75.43
69980;BME280;57318;56.232;43.944;2023-01-31T06:31:07;97856.78;;;-4.01;74.98
69980;BME280;57318;56.232;43.944;2023-01-31T06:33:33;97851.59;;;-4.01;74.99
69980;BME280;57318;56.232;43.944;2023-01-31T06:35:59;97857.47;;;-3.97;74.90
69980;BME280;57318;56.232;43.944;2023-01-31T06:38:26;97849.63;;;-3.95;74.79
69980;BME280;57318;56.232;43.944;2023-01-31T06:40:52;97856.22;;;-3.88;74.50
69980;BME280;57318;56.232;43.944;2023-01-31T06:43:17;97856.03;;;-3.85;74.31
69980;BME280;57318;56.232;43.944;2023-01-31T06:45:43;97862.78;;;-3.81;74.25
69980;BME280;57318;56.232;43.944;2023-01-31T06:48:10;97867.91;;;-3.79;73.82
69980;BME280;57318;56.232;43.944;2023-01-31T06:50:35;97873.22;;;-3.83;73.47
69980;BME280;57318;56.232;43.944;2023-01-31T06:53:01;97859.28;;;-3.80;73.48
69980;BME280;57318;56.232;43.944;2023-01-31T06:55:27;97860.25;;;-3.83;73.45
69980;BME280;57318;56.232;43.944;2023-01-31T06:57:52;97859.97;;;-3.76;73.29
69980;BME280;57318;56.232;43.944;2023-01-31T07:00:20;97866.00;;;-3.76;73.25
69980;BME280;57318;56.232;43.944;2023-01-31T07:02:46;97868.44;;;-3.73;72.84
69980;BME280;57318;56.232;43.944;2023-01-31T07:05:12;97854.63;;;-3.73;72.70
69980;BME280;57318;56.232;43.944;2023-01-31T07:07:38;97863.19;;;-3.71;72.64
69980;BME280;57318;56.232;43.944;2023-01-31T07:10:04;97875.31;;;-3.72;72.55
69980;BME280;57318;56.232;43.944;2023-01-31T07:12:30;97868.22;;;-3.68;72.35
69980;BME280;57318;56.232;43.944;2023-01-31T07:14:55;97878.47;;;-3.65;72.11
69980;BME280;57318;56.232;43.944;2023-01-31T07:17:21;97855.88;;;-3.63;72.10
69980;BME280;57318;56.232;43.944;2023-01-31T07:19:47;97870.53;;;-3.62;72.08
69980;BME280;57318;56.232;43.944;2023-01-31T07:22:13;97865.94;;;-3.57;71.99
69980;BME280;57318;56.232;43.944;2023-01-31T07:24:38;97880.63;;;-3.56;72.06
69980;BME280;57318;56.232;43.944;2023-01-31T07:27:04;97870.84;;;-3.51;72.12
69980;BME280;57318;56.232;43.944;2023-01-31T07:29:30;97875.59;;;-3.41;71.97
69980;BME280;57318;56.232;43.944;2023-01-31T07:31:56;97879.97;;;-3.42;71.99
69980;BME280;57318;56.232;43.944;2023-01-31T07:34:22;97870.13;;;-3.35;71.81
69980;BME280;57318;56.232;43.944;2023-01-31T07:36:49;97866.91;;;-3.40;71.50
69980;BME280;57318;56.232;43.944;2023-01-31T07:39:15;97869.56;;;-3.42;71.53
69980;BME280;57318;56.232;43.944;2023-01-31T07:41:41;97879.75;;;-3.37;71.60
69980;BME280;57318;56.232;43.944;2023-01-31T07:44:06;97870.97;;;-3.35;71.53
69980;BME280;57318;56.232;43.944;2023-01-31T07:46:35;97855.69;;;-3.41;71.69
69980;BME280;57318;56.232;43.944;2023-01-31T07:49:01;97879.00;;;-3.39;71.65
69980;BME280;57318;56.232;43.944;2023-01-31T07:51:26;97883.47;;;-3.43;71.51
69980;BME280;57318;56.232;43.944;2023-01-31T07:53:52;97869.56;;;-3.42;71.65
69980;BME280;57318;56.232;43.944;2023-01-31T07:56:19;97878.13;;;-3.40;71.85
69980;BME280;57318;56.232;43.944;2023-01-31T07:58:46;97875.81;;;-3.46;71.72
69980;BME280;57318;56.232;43.944;2023-01-31T08:01:26;97879.06;;;-3.41;71.65
69980;BME280;57318;56.232;43.944;2023-01-31T08:04:16;97879.91;;;-3.40;72.03
69980;BME280;57318;56.232;43.944;2023-01-31T08:06:46;97881.28;;;-3.33;71.93
69980;BME280;57318;56.232;43.944;2023-01-31T08:09:13;97875.16;;;-3.32;71.57
69980;BME280;57318;56.232;43.944;2023-01-31T08:11:39;97880.88;;;-3.26;71.61
69980;BME280;57318;56.232;43.944;2023-01-31T08:14:07;97892.22;;;-3.27;71.16
69980;BME280;57318;56.232;43.944;2023-01-31T08:16:34;97889.69;;;-3.28;71.28
69980;BME280;57318;56.232;43.944;2023-01-31T08:19:00;97898.31;;;-3.28;71.69
69980;BME280;57318;56.232;43.944;2023-01-31T08:21:26;97909.75;;;-3.32;71.72
69980;BME280;57318;56.232;43.944;2023-01-31T08:23:52;97916.50;;;-3.28;71.76
69980;BME280;57318;56.232;43.944;2023-01-31T08:26:19;97909.75;;;-3.32;71.76
69980;BME280;57318;56.232;43.944;2023-01-31T08:28:47;97907.81;;;-3.27;71.81
69980;BME280;57318;56.232;43.944;2023-01-31T08:31:19;97905.88;;;-3.23;71.56
69980;BME280;57318;56.232;43.944;2023-01-31T08:33:45;97895.88;;;-3.13;71.43
69980;BME280;57318;56.232;43.944;2023-01-31T08:36:20;97882.44;;;-3.21;70.85
69980;BME280;57318;56.232;43.944;2023-01-31T08:38:46;97913.25;;;-2.96;70.51
69980;BME280;57318;56.232;43.944;2023-01-31T08:41:13;97894.06;;;-2.94;70.36
69980;BME280;57318;56.232;43.944;2023-01-31T08:43:41;97888.72;;;-2.91;70.14
69980;BME280;57318;56.232;43.944;2023-01-31T08:46:06;97905.66;;;-3.01;70.21
69980;BME280;57318;56.232;43.944;2023-01-31T08:48:33;97915.91;;;-2.98;70.44
69980;BME280;57318;56.232;43.944;2023-01-31T08:51:02;97907.22;;;-2.97;70.10
69980;BME280;57318;56.232;43.944;2023-01-31T08:53:28;97902.22;;;-2.84;69.54
69980;BME280;57318;56.232;43.944;2023-01-31T08:56:02;97907.13;;;-2.78;69.47
69980;BME280;57318;56.232;43.944;2023-01-31T08:58:34;97906.09;;;-2.75;69.37
69980;BME280;57318;56.232;43.944;2023-01-31T09:01:05;97936.41;;;-2.74;69.35
69980;BME280;57318;56.232;43.944;2023-01-31T09:03:31;97926.44;;;-2.66;69.11
69980;BME280;57318;56.232;43.944;2023-01-31T09:06:04;97933.41;;;-2.66;68.77
69980;BME280;57318;56.232;43.944;2023-01-31T09:08:30;97930.75;;;-2.65;68.51
69980;BME280;57318;56.232;43.944;2023-01-31T09:10:57;97920.94;;;-2.60;68.77
69980;BME280;57318;56.232;43.944;2023-01-31T09:13:25;97937.09;;;-2.53;68.52
69980;BME280;57318;56.232;43.944;2023-01-31T09:16:02;97944.25;;;-2.58;68.60
69980;BME280;57318;56.232;43.944;2023-01-31T09:18:29;97930.44;;;-2.59;68.82
69980;BME280;57318;56.232;43.944;2023-01-31T09:20:54;97937.41;;;-2.59;68.56
69980;BME280;57318;56.232;43.944;2023-01-31T09:23:21;97936.78;;;-2.64;69.06
69980;BME280;57318;56.232;43.944;2023-01-31T09:25:53;97935.78;;;-2.62;68.80
69980;BME280;57318;56.232;43.944;2023-01-31T09:28:19;97937.41;;;-2.59;68.73
69980;BME280;57318;56.232;43.944;2023-01-31T09:30:46;97938.75;;;-2.52;68.65
69980;BME280;57318;56.232;43.944;2023-01-31T09:33:11;97940.28;;;-2.48;68.84
69980;BME280;57318;56.232;43.944;2023-01-31T09:35:37;97933.91;;;-2.42;68.40
69980;BME280;57318;56.232;43.944;2023-01-31T09:38:02;97935.53;;;-2.40;68.53
69980;BME280;57318;56.232;43.944;2023-01-31T09:40:31;97947.94;;;-2.45;68.56
69980;BME280;57318;56.232;43.944;2023-01-31T09:43:01;97951.75;;;-2.52;68.76
69980;BME280;57318;56.232;43.944;2023-01-31T09:47:57;97941.44;;;-2.54;68.95
69980;BME280;57318;56.232;43.944;2023-01-31T09:50:45;97946.19;;;-2.62;69.21
69980;BME280;57318;56.232;43.944;2023-01-31T09:53:17;97941.13;;;-2.65;69.22
69980;BME280;57318;56.232;43.944;2023-01-31T09:56:04;97950.47;;;-2.61;69.34
69980;BME280;57318;56.232;43.944;2023-01-31T10:06:48;97947.56;;;-2.72;69.68
69980;BME280;57318;56.232;43.944;2023-01-31T10:09:30;97935.66;;;-2.76;70.05
69980;BME280;57318;56.232;43.944;2023-01-31T10:12:17;97944.19;;;-2.74;70.38
69980;BME280;57318;56.232;43.944;2023-01-31T10:14:56;97952.97;;;-2.77;70.24
69980;BME280;57318;56.232;43.944;2023-01-31T10:17:31;97950.63;;;-2.81;70.18
69980;BME280;57318;56.232;43.944;2023-01-31T10:23:10;97938.41;;;-2.79;70.65
69980;BME280;57318;56.232;43.944;2023-01-31T10:25:45;97945.09;;;-2.93;70.86
69980;BME280;57318;56.232;43.944;2023-01-31T10:28:32;97932.19;;;-2.94;71.34
69980;BME280;57318;56.232;43.944;2023-01-31T10:33:48;97939.75;;;-2.90;71.27
69980;BME280;57318;56.232;43.944;2023-01-31T10:36:27;97950.44;;;-2.96;71.40
69980;BME280;57318;56.232;43.944;2023-01-31T10:39:01;97945.25;;;-2.96;71.45
69980;BME280;57318;56.232;43.944;2023-01-31T10:41:44;97950.44;;;-2.96;71.47
69980;BME280;57318;56.232;43.944;2023-01-31T10:44:21;97945.75;;;-2.87;71.72
69980;BME280;57318;56.232;43.944;2023-01-31T10:46:53;97948.34;;;-2.87;71.48
69980;BME280;57318;56.232;43.944;2023-01-31T10:49:22;97944.88;;;-2.88;71.28
69980;BME280;57318;56.232;43.944;2023-01-31T10:52:35;97945.81;;;-2.89;71.75
69980;BME280;57318;56.232;43.944;2023-01-31T10:57:51;97958.03;;;-2.91;71.83
69980;BME280;57318;56.232;43.944;2023-01-31T11:00:18;97948.78;;;-2.97;72.28
69980;BME280;57318;56.232;43.944;2023-01-31T11:02:44;97947.09;;;-2.98;72.21
69980;BME280;57318;56.232;43.944;2023-01-31T11:05:16;97941.81;;;-2.96;72.39
69980;BME280;57318;56.232;43.944;2023-01-31T11:07:43;97955.94;;;-3.02;72.32
69980;BME280;57318;56.232;43.944;2023-01-31T11:10:27;97948.94;;;-3.00;72.70
69980;BME280;57318;56.232;43.944;2023-01-31T11:12:55;97941.16;;;-3.00;72.68
69980;BME280;57318;56.232;43.944;2023-01-31T11:15:24;97953.44;;;-3.03;72.53
69980;BME280;57318;56.232;43.944;2023-01-31T11:17:51;97940.53;;;-3.05;72.65
69980;BME280;57318;56.232;43.944;2023-01-31T11:20:27;97952.66;;;-3.05;73.01
69980;BME280;57318;56.232;43.944;2023-01-31T11:22:54;97943.97;;;-3.04;72.98
69980;BME280;57318;56.232;43.944;2023-01-31T11:25:22;97938.91;;;-3.08;73.07
69980;BME280;57318;56.232;43.944;2023-01-31T11:27:51;97952.75;;;-3.07;73.09
69980;BME280;57318;56.232;43.944;2023-01-31T11:30:32;97958.88;;;-3.08;73.09
69980;BME280;57318;56.232;43.944;2023-01-31T11:33:00;97952.88;;;-3.10;72.93
69980;BME280;57318;56.232;43.944;2023-01-31T11:35:28;97956.28;;;-3.08;73.11
69980;BME280;57318;56.232;43.944;2023-01-31T11:40:38;97962.31;;;-3.08;73.14
69980;BME280;57318;56.232;43.944;2023-01-31T11:43:20;97964.97;;;-3.09;73.46
69980;BME280;57318;56.232;43.944;2023-01-31T11:45:56;97960.75;;;-3.12;73.09
69980;BME280;57318;56.232;43.944;2023-01-31T11:48:25;97962.59;;;-3.14;73.27
69980;BME280;57318;56.232;43.944;2023-01-31T11:50:56;97958.44;;;-3.18;73.33
69980;BME280;57318;56.232;43.944;2023-01-31T11:53:36;97954.34;;;-3.22;73.52
69980;BME280;57318;56.232;43.944;2023-01-31T11:56:18;97954.19;;;-3.19;73.69
69980;BME280;57318;56.232;43.944;2023-01-31T11:58:49;97959.31;;;-3.17;73.30
69980;BME280;57318;56.232;43.944;2023-01-31T12:01:22;97956.88;;;-3.20;73.66
69980;BME280;57318;56.232;43.944;2023-01-31T12:04:00;97958.59;;;-3.21;73.71
69980;BME280;57318;56.232;43.944;2023-01-31T12:06:33;97969.94;;;-3.22;73.83
69980;BME280;57318;56.232;43.944;2023-01-31T12:09:02;97962.06;;;-3.20;73.73
69980;BME280;57318;56.232;43.944;2023-01-31T12:11:33;97963.88;;;-3.22;73.64
69980;BME280;57318;56.232;43.944;2023-01-31T12:14:13;97977.94;;;-3.27;73.75
69980;BME280;57318;56.232;43.944;2023-01-31T12:16:41;97958.88;;;-3.27;73.87
69980;BME280;57318;56.232;43.944;2023-01-31T12:19:20;97967.69;;;-3.30;73.93
69980;BME280;57318;56.232;43.944;2023-01-31T12:22:12;97970.22;;;-3.28;73.85
69980;BME280;57318;56.232;43.944;2023-01-31T12:25:06;97972.88;;;-3.30;74.15
69980;BME280;57318;56.232;43.944;2023-01-31T12:30:22;97970.38;;;-3.31;73.97
69980;BME280;57318;56.232;43.944;2023-01-31T12:33:14;97963.47;;;-3.32;74.30
69980;BME280;57318;56.232;43.944;2023-01-31T12:44:48;97967.53;;;-3.27;74.19
69980;BME280;57318;56.232;43.944;2023-01-31T12:47:40;97963.09;;;-3.24;73.85
69980;BME280;57318;56.232;43.944;2023-01-31T12:50:34;97977.16;;;-3.29;73.96
69980;BME280;57318;56.232;43.944;2023-01-31T12:53:23;97975.41;;;-3.28;74.00
69980;BME280;57318;56.232;43.944;2023-01-31T12:59:00;97967.22;;;-3.38;74.01
69980;BME280;57318;56.232;43.944;2023-01-31T13:07:21;97965.66;;;-3.42;74.28
69980;BME280;57318;56.232;43.944;2023-01-31T13:09:50;97976.06;;;-3.42;74.28
69980;BME280;57318;56.232;43.944;2023-01-31T13:12:20;97987.22;;;-3.40;74.21
69980;BME280;57318;56.232;43.944;2023-01-31T13:15:06;97980.50;;;-3.44;74.46
69980;BME280;57318;56.232;43.944;2023-01-31T13:17:39;97983.22;;;-3.47;74.39
69980;BME280;57318;56.232;43.944;2023-01-31T13:20:27;97973.75;;;-3.48;74.89
69980;BME280;57318;56.232;43.944;2023-01-31T13:23:00;97985.81;;;-3.47;74.36
69980;BME280;57318;56.232;43.944;2023-01-31T13:28:01;98003.06;;;-3.46;74.94
69980;BME280;57318;56.232;43.944;2023-01-31T13:30:53;97999.72;;;-3.48;74.77
69980;BME280;57318;56.232;43.944;2023-01-31T13:33:39;98007.50;;;-3.48;74.63
69980;BME280;57318;56.232;43.944;2023-01-31T13:38:41;98020.41;;;-3.47;74.94
69980;BME280;57318;56.232;43.944;2023-01-31T13:41:12;98032.56;;;-3.47;74.96
69980;BME280;57318;56.232;43.944;2023-01-31T13:43:41;98031.50;;;-3.43;74.78
69980;BME280;57318;56.232;43.944;2023-01-31T13:46:08;98034.22;;;-3.46;74.62
69980;BME280;57318;56.232;43.944;2023-01-31T13:48:45;98035.03;;;-3.44;74.84
69980;BME280;57318;56.232;43.944;2023-01-31T13:53:49;98037.84;;;-3.49;74.89
69980;BME280;57318;56.232;43.944;2023-01-31T13:56:22;98029.91;;;-3.46;74.98
69980;BME280;57318;56.232;43.944;2023-01-31T13:58:50;98054.81;;;-3.41;74.73
69980;BME280;57318;56.232;43.944;2023-01-31T14:01:24;98040.16;;;-3.42;74.85
69980;BME280;57318;56.232;43.944;2023-01-31T14:09:27;98065.13;;;-3.40;74.69
69980;BME280;57318;56.232;43.944;2023-01-31T14:22:25;98082.25;;;-3.36;74.60
69980;BME280;57318;56.232;43.944;2023-01-31T14:40:33;98109.00;;;-3.34;74.99
69980;BME280;57318;56.232;43.944;2023-01-31T14:49:00;98101.19;;;-3.34;74.87
69980;BME280;57318;56.232;43.944;2023-01-31T14:57:17;98116.78;;;-3.34;75.00
69980;BME280;57318;56.232;43.944;2023-01-31T14:59:52;98134.22;;;-3.36;74.85
69980;BME280;57318;56.232;43.944;2023-01-31T15:04:59;98127.31;;;-3.37;74.85
69980;BME280;57318;56.232;43.944;2023-01-31T15:07:25;98115.25;;;-3.38;74.78
69980;BME280;57318;56.232;43.944;2023-01-31T15:09:51;98131.69;;;-3.37;74.65
69980;BME280;57318;56.232;43.944;2023-01-31T15:12:50;98118.69;;;-3.37;75.06
69980;BME280;57318;56.232;43.944;2023-01-31T15:17:51;98127.38;;;-3.38;74.98
69980;BME280;57318;56.232;43.944;2023-01-31T15:20:27;98114.41;;;-3.38;75.07
69980;BME280;57318;56.232;43.944;2023-01-31T15:23:02;98123.13;;;-3.39;74.79